Rhino — 9V8875 — position and weather

sailwx.info

Track history (hours):
 
Tides and Currents Weather Stations Pressure Air Temp Water Temp Dewpoint Dewpoint Depression Visibility Wind Speed Wind Dir Waves Ship Positions

Rhino

Last reported at 2018-Jun-19 18:00 UTC. Time now 2018-Jun-19 18:25 UTC.
Position N 44°42' E 013°35'.

Length 176 m; draft 7.5 m.

Type: Tanker. MMSI: 564224000.

Date/timePositionNaut miles runAvg speedWind from/ knotsBaromVisibWave heightAir tempDewpointWater temp
2018-Jun-19 18:00N 44°42' E 013°35'448 9.0
2018-Jun-17 16:13N 37°24' E 015°40'  
2018-Jun-12 05:23N 36°29' E 014°37'512.0
2018-Jun-12 05:00N 36°29' E 014°32'612.0
2018-Jun-12 04:30N 36°31' E 014°24'612.1
2018-Jun-12 04:00N 36°33' E 014°17'612.1
2018-Jun-12 03:30N 36°35' E 014°10'612.1
2018-Jun-12 02:59N 36°37' E 014°03'612.2
2018-Jun-12 02:30N 36°39' E 013°56'612.4
2018-Jun-12 02:00N 36°40' E 013°48'612.5
2018-Jun-12 01:30N 36°41' E 013°41'612.5
2018-Jun-12 01:00N 36°41' E 013°33'612.4
2018-Jun-12 00:30N 36°42' E 013°25'612.5
2018-Jun-12 00:00N 36°43' E 013°18'712.2
2018-Jun-11 23:28N 36°45' E 013°09'612.1
2018-Jun-11 23:00N 36°46' E 013°03'611.9
2018-Jun-11 22:30N 36°48' E 012°55'611.5
2018-Jun-11 22:00N 36°49' E 012°49'712.4
2018-Jun-11 21:27N 36°54' E 012°42'612.5
2018-Jun-11 21:00N 36°56' E 012°36'612.6
2018-Jun-11 20:30N 36°59' E 012°29'612.6
2018-Jun-11 20:00N 37°02' E 012°22'612.4
2018-Jun-11 19:30N 37°05' E 012°15'612.5
2018-Jun-11 19:00N 37°06' E 012°07'  
Track history (hours):
 
Tides and Currents Weather Stations Pressure Air Temp Water Temp Dewpoint Dewpoint Depression Visibility Wind Speed Wind Dir Waves Ship Positions

Rhino

Last reported at 2018-Jun-19 18:00 UTC. Time now 2018-Jun-19 18:25 UTC.
Position N 44°42' E 013°35'.

Length 176 m; draft 7.5 m.

Type: Tanker. MMSI: 564224000.

Date/timePositionNaut miles runAvg speedWind from/ knotsBaromVisibWave heightAir tempDewpointWater temp
2018-Jun-19 18:00N 44°42' E 013°35'448 9.0
2018-Jun-17 16:13N 37°24' E 015°40'  
2018-Jun-12 05:23N 36°29' E 014°37'512.0
2018-Jun-12 05:00N 36°29' E 014°32'612.0
2018-Jun-12 04:30N 36°31' E 014°24'612.1
2018-Jun-12 04:00N 36°33' E 014°17'612.1
2018-Jun-12 03:30N 36°35' E 014°10'612.1
2018-Jun-12 02:59N 36°37' E 014°03'612.2
2018-Jun-12 02:30N 36°39' E 013°56'612.4
2018-Jun-12 02:00N 36°40' E 013°48'612.5
2018-Jun-12 01:30N 36°41' E 013°41'612.5
2018-Jun-12 01:00N 36°41' E 013°33'612.4
2018-Jun-12 00:30N 36°42' E 013°25'612.5
2018-Jun-12 00:00N 36°43' E 013°18'712.2
2018-Jun-11 23:28N 36°45' E 013°09'612.1
2018-Jun-11 23:00N 36°46' E 013°03'611.9
2018-Jun-11 22:30N 36°48' E 012°55'611.5
2018-Jun-11 22:00N 36°49' E 012°49'712.4
2018-Jun-11 21:27N 36°54' E 012°42'612.5
2018-Jun-11 21:00N 36°56' E 012°36'612.6
2018-Jun-11 20:30N 36°59' E 012°29'612.6
2018-Jun-11 20:00N 37°02' E 012°22'612.4
2018-Jun-11 19:30N 37°05' E 012°15'612.5
2018-Jun-11 19:00N 37°06' E 012°07'  

Dump ship's entire track history